| time (UTC) | temp C | wind direction | speed KPH | gust KPH | rain 1hr cm | rain 24hr cm | rain mn cm | humidity % | barometer mb |
| 20260905195004 | 17 | 301 | 8.0 | 16.1 | 0.00 | 0.15 | 0.15 | 57 | 1027.0 |
| 20260905194003 | 17 | 295 | 6.4 | 14.5 | 0.00 | 0.15 | 0.15 | 57 | 1026.7 |
| 20260905193003 | 17 | 268 | 3.2 | 14.5 | 0.00 | 0.15 | 0.15 | 58 | 1026.7 |
| 20260905192003 | 17 | 265 | 1.6 | 9.7 | 0.00 | 0.15 | 0.15 | 59 | 1026.5 |
| 20260905191003 | 17 | 258 | 3.2 | 9.7 | 0.00 | 0.15 | 0.15 | 60 | 1026.4 |
| 20260905190004 | 17 | 255 | 1.6 | 6.4 | 0.00 | 0.15 | 0.15 | 60 | 1026.5 |
| 20260905185003 | 17 | 271 | 3.2 | 9.7 | 0.00 | 0.15 | 0.15 | 60 | 1026.5 |
| 20260905184003 | 17 | 263 | 1.6 | 6.4 | 0.00 | 0.15 | 0.15 | 61 | 1025.9 |
| 20260905183003 | 17 | 237 | 0.0 | 3.2 | 0.00 | 0.15 | 0.15 | 62 | 1026.0 |
| 20260905182003 | 17 | 239 | 0.0 | 4.8 | 0.00 | 0.15 | 0.15 | 62 | 1026.1 |
| 20260905181003 | 17 | 0 | 0.0 | 0.0 | 0.00 | 0.15 | 0.15 | 62 | 1025.8 |
| 20260905180003 | 18 | 0 | 0.0 | 0.0 | 0.00 | 0.15 | 0.15 | 61 | 1025.6 |
| 20260905175003 | 18 | 259 | 0.0 | 3.2 | 0.00 | 0.15 | 0.15 | 59 | 1025.2 |
| 20260905174003 | 18 | 0 | 0.0 | 0.0 | 0.00 | 0.15 | 0.15 | 57 | 1025.1 |
| 20260905173003 | 19 | 303 | 0.0 | 3.2 | 0.00 | 0.15 | 0.15 | 55 | 1024.9 |
| 20260905172003 | 19 | 298 | 1.6 | 4.8 | 0.00 | 0.15 | 0.15 | 53 | 1024.6 |
| 20260905171003 | 19 | 303 | 1.6 | 6.4 | 0.00 | 0.15 | 0.15 | 52 | 1024.5 |
| 20260905170003 | 20 | 305 | 6.4 | 16.1 | 0.00 | 0.15 | 0.15 | 51 | 1024.6 |
| 20260905165003 | 20 | 309 | 6.4 | 14.5 | 0.00 | 0.15 | 0.15 | 50 | 1024.2 |
| 20260905164003 | 20 | 308 | 4.8 | 12.9 | 0.00 | 0.15 | 0.15 | 49 | 1024.3 |
| 20260905163003 | 20 | 307 | 1.6 | 9.7 | 0.00 | 0.15 | 0.15 | 51 | 1024.2 |
| 20260905162003 | 20 | 307 | 4.8 | 12.9 | 0.00 | 0.15 | 0.15 | 49 | 1023.9 |
| 20260905161003 | 21 | 315 | 8.0 | 22.5 | 0.00 | 0.15 | 0.15 | 47 | 1023.7 |
| 20260905160003 | 22 | 327 | 8.0 | 17.7 | 0.00 | 0.15 | 0.15 | 44 | 1023.4 |
| 20260905155003 | 22 | 335 | 8.0 | 16.1 | 0.00 | 0.15 | 0.15 | 45 | 1023.4 |
| 20260905154003 | 21 | 312 | 11.3 | 24.1 | 0.00 | 0.15 | 0.15 | 46 | 1023.6 |
| 20260905153003 | 22 | 304 | 14.5 | 27.4 | 0.00 | 0.15 | 0.15 | 44 | 1023.1 |
| 20260905152003 | 22 | 310 | 14.5 | 29.0 | 0.00 | 0.15 | 0.15 | 44 | 1023.2 |
| 20260905151003 | 22 | 297 | 12.9 | 25.7 | 0.00 | 0.15 | 0.15 | 44 | 1023.0 |
| 20260905150003 | 22 | 286 | 11.3 | 25.7 | 0.00 | 0.15 | 0.15 | 45 | 1023.0 |
| 20260905145003 | 21 | 308 | 12.9 | 25.7 | 0.00 | 0.15 | 0.15 | 46 | 1023.3 |
| 20260905144003 | 22 | 298 | 14.5 | 27.4 | 0.00 | 0.15 | 0.15 | 45 | 1022.8 |
| 20260905143003 | 22 | 302 | 12.9 | 27.4 | 0.00 | 0.15 | 0.15 | 45 | 1022.9 |
| 20260905142003 | 22 | 298 | 14.5 | 24.1 | 0.00 | 0.15 | 0.15 | 45 | 1023.1 |
| 20260905141003 | 22 | 304 | 14.5 | 27.4 | 0.00 | 0.15 | 0.15 | 45 | 1023.3 |
| 20260905140004 | 22 | 302 | 12.9 | 24.1 | 0.00 | 0.15 | 0.15 | 48 | 1023.3 |
| 20260905135003 | 21 | 288 | 12.9 | 27.4 | 0.00 | 0.15 | 0.15 | 49 | 1023.1 |
| 20260905134003 | 22 | 292 | 12.9 | 25.7 | 0.00 | 0.15 | 0.15 | 47 | 1023.4 |
| 20260905133003 | 21 | 279 | 11.3 | 24.1 | 0.00 | 0.15 | 0.15 | 49 | 1023.3 |
| 20260905132003 | 21 | 300 | 11.3 | 22.5 | 0.00 | 0.15 | 0.15 | 50 | 1023.6 |
| 20260905131003 | 21 | 296 | 14.5 | 29.0 | 0.00 | 0.15 | 0.15 | 50 | 1023.5 |
| 20260905130003 | 21 | 288 | 16.1 | 33.8 | 0.00 | 0.15 | 0.15 | 47 | 1023.4 |
| 20260905125003 | 21 | 289 | 12.9 | 30.6 | 0.00 | 0.15 | 0.15 | 47 | 1023.7 |
| 20260905124003 | 21 | 295 | 11.3 | 29.0 | 0.00 | 0.15 | 0.15 | 47 | 1023.6 |
| 20260905123003 | 21 | 297 | 14.5 | 25.7 | 0.00 | 0.15 | 0.15 | 52 | 1023.8 |
| 20260905122003 | 20 | 305 | 14.5 | 27.4 | 0.00 | 0.15 | 0.15 | 50 | 1023.9 |
| 20260905121003 | 21 | 287 | 14.5 | 29.0 | 0.00 | 0.15 | 0.15 | 51 | 1024.2 |
| 20260905120004 | 21 | 294 | 12.9 | 27.4 | 0.00 | 0.15 | 0.15 | 48 | 1024.2 |
| 20260905115003 | 21 | 297 | 14.5 | 29.0 | 0.00 | 0.15 | 0.15 | 48 | 1024.2 |
| 20260905114003 | 20 | 291 | 12.9 | 29.0 | 0.00 | 0.15 | 0.15 | 49 | 1024.3 |
| 20260905113003 | 20 | 282 | 14.5 | 27.4 | 0.00 | 0.15 | 0.15 | 52 | 1024.1 |
| 20260905112003 | 20 | 285 | 14.5 | 30.6 | 0.00 | 0.15 | 0.15 | 49 | 1024.4 |
| 20260905111003 | 20 | 283 | 11.3 | 27.4 | 0.00 | 0.15 | 0.15 | 55 | 1024.5 |
| 20260905110003 | 19 | 305 | 14.5 | 29.0 | 0.00 | 0.15 | 0.15 | 57 | 1024.7 |
| 20260905105003 | 20 | 303 | 14.5 | 27.4 | 0.00 | 0.15 | 0.15 | 53 | 1024.6 |
| 20260905104003 | 20 | 289 | 14.5 | 29.0 | 0.00 | 0.15 | 0.15 | 52 | 1024.3 |
| 20260905103003 | 20 | 287 | 14.5 | 30.6 | 0.00 | 0.15 | 0.15 | 51 | 1024.4 |
| 20260905102003 | 20 | 298 | 16.1 | 29.0 | 0.00 | 0.15 | 0.15 | 53 | 1024.1 |
| 20260905101003 | 20 | 298 | 14.5 | 27.4 | 0.00 | 0.15 | 0.15 | 53 | 1024.3 |
| 20260905100003 | 20 | 304 | 16.1 | 35.4 | 0.00 | 0.15 | 0.15 | 56 | 1024.5 |
| 20260905095003 | 19 | 299 | 14.5 | 29.0 | 0.00 | 0.15 | 0.15 | 58 | 1024.3 |
| 20260905094003 | 19 | 292 | 14.5 | 29.0 | 0.00 | 0.15 | 0.15 | 59 | 1024.4 |
| 20260905093003 | 19 | 292 | 12.9 | 25.7 | 0.00 | 0.15 | 0.15 | 64 | 1024.4 |
| 20260905092003 | 19 | 297 | 14.5 | 29.0 | 0.00 | 0.15 | 0.15 | 65 | 1024.5 |
| 20260905091003 | 19 | 296 | 12.9 | 25.7 | 0.00 | 0.15 | 0.15 | 68 | 1024.2 |
| 20260905090003 | 18 | 295 | 11.3 | 22.5 | 0.00 | 0.15 | 0.15 | 68 | 1024.2 |
| 20260905085003 | 18 | 265 | 11.3 | 25.7 | 0.00 | 0.15 | 0.15 | 69 | 1024.5 |
| 20260905084003 | 18 | 283 | 11.3 | 22.5 | 0.00 | 0.15 | 0.15 | 71 | 1024.3 |
| 20260905083003 | 17 | 294 | 14.5 | 24.1 | 0.00 | 0.15 | 0.15 | 71 | 1024.4 |
| 20260905082003 | 18 | 288 | 12.9 | 25.7 | 0.00 | 0.15 | 0.15 | 70 | 1024.3 |
| 20260905081003 | 18 | 274 | 12.9 | 29.0 | 0.00 | 0.15 | 0.15 | 73 | 1024.1 |
| 20260905080003 | 17 | 286 | 11.3 | 24.1 | 0.00 | 0.15 | 0.15 | 72 | 1024.0 |
| 20260905075003 | 17 | 286 | 11.3 | 22.5 | 0.00 | 0.15 | 0.15 | 75 | 1024.0 |
| 20260905074003 | 17 | 259 | 11.3 | 22.5 | 0.00 | 0.15 | 0.15 | 76 | 1023.9 |
| 20260905073003 | 17 | 263 | 9.7 | 22.5 | 0.00 | 0.15 | 0.15 | 79 | 1024.2 |
| 20260905072003 | 16 | 265 | 11.3 | 25.7 | 0.00 | 0.15 | 0.15 | 80 | 1023.8 |
| 20260905071003 | 16 | 269 | 11.3 | 25.7 | 0.00 | 0.15 | 0.15 | 81 | 1024.1 |
| 20260905070004 | 16 | 252 | 11.3 | 25.7 | 0.00 | 0.15 | 0.15 | 80 | 1024.0 |
| 20260905065003 | 15 | 245 | 11.3 | 20.9 | 0.00 | 0.15 | 0.15 | 80 | 1024.0 |
| 20260905064003 | 15 | 235 | 8.0 | 17.7 | 0.00 | 0.15 | 0.15 | 81 | 1024.0 |
| 20260905063003 | 15 | 242 | 8.0 | 24.1 | 0.00 | 0.15 | 0.15 | 82 | 1024.2 |
| 20260905062003 | 15 | 234 | 9.7 | 20.9 | 0.03 | 0.15 | 0.15 | 82 | 1024.0 |
| 20260905061003 | 15 | 241 | 9.7 | 20.9 | 0.03 | 0.15 | 0.15 | 83 | 1023.8 |
| 20260905060003 | 15 | 244 | 6.4 | 14.5 | 0.03 | 0.15 | 0.15 | 84 | 1023.7 |
| 20260905055003 | 15 | 249 | 4.8 | 11.3 | 0.03 | 0.15 | 0.15 | 84 | 1023.7 |
| 20260905054003 | 15 | 243 | 3.2 | 11.3 | 0.05 | 0.15 | 0.15 | 85 | 1023.5 |
| 20260905053003 | 15 | 276 | 4.8 | 9.7 | 0.05 | 0.15 | 0.15 | 85 | 1023.4 |
| 20260905052003 | 15 | 241 | 1.6 | 6.4 | 0.08 | 0.13 | 0.13 | 84 | 1023.5 |
| 20260905051003 | 15 | 254 | 3.2 | 6.4 | 0.10 | 0.13 | 0.13 | 84 | 1023.3 |
| 20260905050003 | 15 | 198 | 4.8 | 11.3 | 0.10 | 0.13 | 0.13 | 83 | 1023.0 |
| 20260905045003 | 15 | 218 | 3.2 | 9.7 | 0.13 | 0.13 | 0.13 | 82 | 1022.9 |
| 20260905044003 | 15 | 256 | 4.8 | 12.9 | 0.10 | 0.10 | 0.10 | 81 | 1023.3 |
| 20260905043003 | 15 | 241 | 6.4 | 12.9 | 0.10 | 0.10 | 0.10 | 80 | 1023.1 |
| 20260905042003 | 15 | 275 | 4.8 | 14.5 | 0.05 | 0.05 | 0.08 | 77 | 1023.1 |
| 20260905041003 | 16 | 290 | 8.0 | 16.1 | 0.03 | 0.03 | 0.03 | 74 | 1023.4 |
| 20260905040003 | 16 | 290 | 9.7 | 17.7 | 0.03 | 0.03 | 0.03 | 73 | 1023.0 |
| 20260905035003 | 16 | 291 | 8.0 | 17.7 | 0.00 | 0.00 | 0.00 | 71 | 1022.5 |
| 20260905034003 | 16 | 300 | 6.4 | 12.9 | 0.00 | 0.00 | 0.00 | 70 | 1022.0 |
| 20260905033003 | 16 | 283 | 4.8 | 12.9 | 0.00 | 0.00 | 0.00 | 70 | 1022.1 |
| 20260905032003 | 16 | 253 | 6.4 | 12.9 | 0.00 | 0.00 | 0.00 | 70 | 1022.5 |
| 20260905031003 | 17 | 249 | 4.8 | 9.7 | 0.00 | 0.00 | 0.00 | 71 | 1021.5 |
| 20260905030003 | 17 | 211 | 4.8 | 11.3 | 0.00 | 0.00 | 0.00 | 72 | 1021.3 |
| 20260905025003 | 17 | 273 | 1.6 | 6.4 | 0.00 | 0.00 | 0.00 | 73 | 1021.2 |
| 20260905024003 | 17 | 276 | 3.2 | 9.7 | 0.00 | 0.00 | 0.00 | 72 | 1020.9 |
| 20260905023003 | 17 | 292 | 4.8 | 12.9 | 0.00 | 0.00 | 0.00 | 72 | 1021.4 |
| 20260905022003 | 17 | 312 | 9.7 | 17.7 | 0.00 | 0.00 | 0.00 | 72 | 1021.6 |
| 20260905021003 | 18 | 311 | 9.7 | 17.7 | 0.00 | 0.00 | 0.00 | 70 | 1021.5 |
| 20260905020004 | 18 | 309 | 8.0 | 16.1 | 0.00 | 0.00 | 0.00 | 69 | 1021.1 |
| 20260905015003 | 18 | 307 | 8.0 | 12.9 | 0.00 | 0.00 | 0.00 | 69 | 1020.9 |
| 20260905014003 | 18 | 309 | 8.0 | 16.1 | 0.00 | 0.00 | 0.00 | 70 | 1020.8 |
| 20260905013003 | 18 | 307 | 6.4 | 17.7 | 0.00 | 0.00 | 0.00 | 70 | 1020.5 |
| 20260905012003 | 18 | 305 | 6.4 | 16.1 | 0.00 | 0.00 | 0.00 | 71 | 1020.1 |
| 20260905011003 | 18 | 307 | 4.8 | 16.1 | 0.00 | 0.00 | 0.00 | 72 | 1020.2 |
| 20260905010003 | 18 | 300 | 4.8 | 12.9 | 0.00 | 0.00 | 0.00 | 72 | 1020.5 |
| 20260905005003 | 18 | 308 | 3.2 | 11.3 | 0.00 | 0.00 | 0.00 | 72 | 1019.9 |
| 20260905004003 | 18 | 306 | 6.4 | 14.5 | 0.00 | 0.00 | 0.00 | 71 | 1020.5 |
| 20260905003003 | 18 | 311 | 9.7 | 24.1 | 0.00 | 0.00 | 0.00 | 69 | 1020.2 |
| 20260905002003 | 18 | 315 | 4.8 | 16.1 | 0.00 | 0.00 | 0.00 | 70 | 1020.2 |
| 20260905001003 | 18 | 313 | 4.8 | 11.3 | 0.00 | 0.00 | 0.00 | 70 | 1020.4 |
| 20260905000004 | 18 | 322 | 4.8 | 11.3 | 0.00 | 0.00 | 0.00 | 69 | 1020.0 |
| 20260904235003 | 18 | 328 | 4.8 | 12.9 | 0.00 | 0.00 | 0.00 | 68 | 1019.6 |
| 20260904234003 | 19 | 319 | 8.0 | 25.7 | 0.00 | 0.00 | 0.00 | 68 | 1019.7 |
| 20260904233003 | 19 | 329 | 6.4 | 20.9 | 0.00 | 0.00 | 0.00 | 68 | 1019.6 |
| 20260904232003 | 19 | 318 | 4.8 | 14.5 | 0.00 | 0.00 | 0.00 | 68 | 1018.9 |
| 20260904231003 | 19 | 327 | 8.0 | 17.7 | 0.00 | 0.00 | 0.00 | 68 | 1018.7 |
| 20260904230003 | 19 | 324 | 8.0 | 16.1 | 0.00 | 0.00 | 0.00 | 68 | 1018.0 |
| 20260904225003 | 20 | 314 | 4.8 | 14.5 | 0.00 | 0.00 | 0.00 | 69 | 1017.9 |
| 20260904224003 | 20 | 317 | 6.4 | 12.9 | 0.00 | 0.00 | 0.00 | 68 | 1017.5 |
| 20260904223003 | 20 | 312 | 6.4 | 12.9 | 0.00 | 0.00 | 0.00 | 69 | 1017.0 |
| 20260904222003 | 20 | 315 | 4.8 | 14.5 | 0.00 | 0.00 | 0.00 | 70 | 1016.5 |
| 20260904221003 | 21 | 311 | 6.4 | 12.9 | 0.00 | 0.00 | 0.00 | 69 | 1016.4 |
| 20260904220020 | 21 | 309 | 6.4 | 14.5 | 0.00 | 0.00 | 0.00 | 66 | 1016.0 |
| 20260904215003 | 22 | 311 | 6.4 | 14.5 | 0.00 | 0.00 | 0.00 | 61 | 1015.5 |
| 20260904214003 | 22 | 291 | 4.8 | 12.9 | 0.00 | 0.00 | 0.00 | 59 | 1015.4 |
| 20260904213003 | 22 | 237 | 6.4 | 14.5 | 0.00 | 0.00 | 0.00 | 57 | 1015.3 |
| 20260904212003 | 22 | 206 | 8.0 | 16.1 | 0.00 | 0.00 | 0.00 | 58 | 1015.0 |
| 20260904211003 | 22 | 205 | 6.4 | 14.5 | 0.00 | 0.00 | 0.00 | 58 | 1015.0 |
| 20260904210003 | 22 | 208 | 6.4 | 16.1 | 0.00 | 0.00 | 0.00 | 57 | 1014.9 |
| 20260904205003 | 22 | 210 | 6.4 | 12.9 | 0.00 | 0.00 | 0.00 | 57 | 1015.0 |
| 20260904204003 | 22 | 223 | 6.4 | 14.5 | 0.00 | 0.00 | 0.00 | 57 | 1015.0 |
| 20260904203003 | 22 | 216 | 4.8 | 16.1 | 0.00 | 0.00 | 0.00 | 58 | 1015.2 |
| 20260904202003 | 22 | 211 | 4.8 | 14.5 | 0.00 | 0.00 | 0.00 | 60 | 1015.4 |
| 20260904201003 | 22 | 205 | 3.2 | 9.7 | 0.00 | 0.00 | 0.00 | 59 | 1015.1 |
| 20260904200003 | 22 | 205 | 1.6 | 6.4 | 0.00 | 0.00 | 0.00 | 59 | 1015.2 |